Main page
METAR-TAF:

METAR-TAF

Airports :

Harrisburg-Raleigh Airport

Harrisburg, Illinois, United States

latitude: 37-48-41N, longitude: 088-32-57W, elevation: 397 ft

Current weather observation

The report was made 15 minutes ago, at 11:35 UTC
Wind 6 mph from the South
Temperature 39°F
Humidity 75%
Pressure 30.16 in. Hg
Visibility: 10 miles
Overcast at a height of 6500 ft

METAR: KHSB 231135Z AUTO 19005KT 10SM OVC065 04/00 A3016 RMK AO2 T00411005

Time: 05:50 (11:50 UTC)


TAF: missing

Weather observations and forecasts of more than 4000 airports (METAR and TAF reports).

The available stations are represented by yellow and red dots on the map.

Hover mouse over dot to see the name of the station.

Then click to see weather observations and forecasts.

To change the map : click on the green buttons with a black cross to zoom in, on the green button with a dash to zoom out, or on the green arrows for adjacent maps.


METAR-TAF: